createdAt,value
2022-09-13T00:01:46.349Z,13.00
2022-09-13T00:04:15.489Z,13.00
2022-09-13T00:06:43.492Z,13.00
2022-09-13T00:09:12.855Z,13.00
2022-09-13T00:11:41.171Z,13.00
2022-09-13T00:14:09.160Z,13.00
2022-09-13T00:16:37.260Z,13.00
2022-09-13T00:19:08.622Z,13.00
2022-09-13T00:21:37.350Z,13.00
2022-09-13T00:24:05.806Z,13.00
2022-09-13T00:26:35.250Z,13.00
2022-09-13T00:29:03.380Z,13.00
2022-09-13T00:31:31.603Z,12.80
2022-09-13T00:34:00.985Z,12.80
2022-09-13T00:36:29.564Z,12.70
2022-09-13T00:38:57.997Z,12.70
2022-09-13T00:41:27.101Z,12.70
2022-09-13T00:43:58.481Z,12.60
2022-09-13T00:46:33.892Z,12.60
2022-09-13T00:49:09.708Z,12.70
2022-09-13T00:51:38.252Z,12.60
2022-09-13T00:54:06.491Z,12.60
2022-09-13T00:56:41.403Z,12.70
2022-09-13T00:59:14.791Z,12.60
2022-09-13T01:01:49.257Z,12.70
2022-09-13T01:04:18.981Z,12.60
2022-09-13T01:06:48.130Z,12.50
2022-09-13T01:09:17.263Z,12.50
2022-09-13T01:11:50.392Z,12.50
2022-09-13T01:14:26.653Z,12.50
2022-09-13T01:16:55.080Z,12.40
2022-09-13T01:19:23.470Z,12.40
2022-09-13T01:22:39.003Z,12.50
2022-09-13T01:25:36.292Z,12.50
2022-09-13T01:28:52.063Z,12.50
2022-09-13T01:31:29.083Z,12.50
2022-09-13T01:34:14.102Z,12.50
2022-09-13T01:37:00.166Z,12.40
2022-09-13T01:39:44.720Z,12.40
2022-09-13T01:42:22.402Z,12.40
2022-09-13T01:45:07.873Z,12.40
2022-09-13T01:47:47.151Z,12.40
2022-09-13T01:50:30.027Z,12.40
2022-09-13T01:53:02.930Z,12.20
2022-09-13T01:55:38.118Z,12.20
2022-09-13T01:58:17.855Z,12.10
2022-09-13T02:00:53.332Z,12.10
2022-09-13T02:03:29.561Z,12.00
2022-09-13T02:06:02.674Z,11.90
2022-09-13T02:08:40.210Z,12.00
2022-09-13T02:11:17.117Z,11.90
2022-09-13T02:13:55.590Z,11.90
2022-09-13T02:16:29.715Z,11.80
2022-09-13T02:19:04.850Z,11.80
2022-09-13T02:21:39.391Z,11.80
2022-09-13T02:24:09.774Z,11.80
2022-09-13T02:26:41.148Z,11.80
2022-09-13T02:29:14.574Z,11.80
2022-09-13T02:31:46.554Z,11.70
2022-09-13T02:34:22.752Z,11.70
2022-09-13T02:36:53.749Z,11.70
2022-09-13T02:39:25.624Z,11.60
2022-09-13T02:41:59.666Z,11.60
2022-09-13T02:44:32.209Z,11.60
2022-09-13T02:47:12.134Z,11.60
2022-09-13T02:49:51.807Z,11.60
2022-09-13T02:52:27.533Z,11.60
2022-09-13T02:55:03.214Z,11.70
2022-09-13T02:57:36.054Z,11.70
2022-09-13T03:00:04.780Z,11.80
2022-09-13T03:02:35.288Z,11.80
2022-09-13T03:05:18.142Z,11.80
2022-09-13T03:07:46.211Z,11.90
2022-09-13T03:10:16.560Z,11.80
2022-09-13T03:13:06.076Z,11.70
2022-09-13T03:15:47.871Z,11.70
2022-09-13T03:18:30.980Z,11.60
2022-09-13T03:21:08.042Z,11.60
2022-09-13T03:23:51.275Z,11.60
2022-09-13T03:26:27.840Z,11.50
2022-09-13T03:29:10.370Z,11.40
2022-09-13T03:31:46.699Z,11.40
2022-09-13T03:34:25.286Z,11.30
2022-09-13T03:36:58.289Z,11.30
2022-09-13T03:39:36.698Z,11.30
2022-09-13T03:42:13.528Z,11.40
2022-09-13T03:44:45.340Z,11.40
2022-09-13T03:47:14.281Z,11.50
2022-09-13T03:49:43.099Z,11.40
2022-09-13T03:52:13.139Z,11.40
2022-09-13T03:54:41.208Z,11.40
2022-09-13T03:57:22.995Z,11.30
2022-09-13T03:59:53.161Z,11.30
2022-09-13T04:02:22.257Z,11.40
2022-09-13T04:04:50.907Z,11.40
2022-09-13T04:07:21.746Z,11.50
2022-09-13T04:09:50.106Z,11.50
2022-09-13T04:12:19.143Z,11.50
2022-09-13T04:14:47.398Z,11.60
2022-09-13T04:17:15.536Z,11.60
2022-09-13T04:19:47.086Z,11.60
2022-09-13T04:22:15.810Z,11.60
2022-09-13T04:24:45.282Z,11.60
2022-09-13T04:27:13.574Z,11.50
2022-09-13T04:29:41.776Z,11.50
2022-09-13T04:32:11.006Z,11.50
2022-09-13T04:34:42.075Z,11.50
2022-09-13T04:37:10.289Z,11.50
2022-09-13T04:39:38.311Z,11.60
2022-09-13T04:42:08.285Z,11.50
2022-09-13T04:44:36.329Z,11.50
2022-09-13T04:47:04.561Z,11.50
2022-09-13T04:49:32.759Z,11.50
2022-09-13T04:52:00.910Z,11.50
2022-09-13T04:54:29.163Z,11.50
2022-09-13T04:56:57.778Z,11.50
2022-09-13T04:59:27.868Z,11.50
2022-09-13T05:01:56.027Z,11.50
2022-09-13T05:04:24.115Z,11.40
2022-09-13T05:06:52.546Z,11.50
2022-09-13T05:09:20.570Z,11.50
2022-09-13T05:11:48.744Z,11.50
2022-09-13T05:14:16.734Z,11.40
2022-09-13T05:16:46.470Z,11.50
2022-09-13T05:19:14.795Z,11.40
2022-09-13T05:21:42.796Z,11.50
2022-09-13T05:24:11.155Z,11.50
2022-09-13T05:26:43.839Z,11.50
2022-09-13T05:29:11.987Z,11.50
2022-09-13T05:31:42.010Z,11.50
2022-09-13T05:34:15.088Z,11.50
2022-09-13T05:36:43.444Z,11.50
2022-09-13T05:39:31.932Z,11.70
2022-09-13T05:42:02.622Z,11.80
2022-09-13T05:44:30.887Z,11.80
2022-09-13T05:46:58.958Z,11.90
2022-09-13T05:49:29.727Z,12.10
2022-09-13T05:51:57.827Z,12.20
2022-09-13T05:54:26.058Z,12.30
2022-09-13T05:56:57.560Z,12.40
2022-09-13T05:59:31.741Z,12.40
2022-09-13T06:02:03.893Z,12.60
2022-09-13T06:04:33.463Z,12.80
2022-09-13T06:07:01.531Z,12.90
2022-09-13T06:09:30.506Z,13.00
2022-09-13T06:12:01.632Z,13.20
2022-09-13T06:14:29.801Z,13.40
2022-09-13T06:16:57.872Z,13.50
2022-09-13T06:19:26.091Z,13.70
2022-09-13T06:21:55.541Z,13.80
2022-09-13T06:24:23.748Z,13.90
2022-09-13T06:26:51.863Z,14.10
2022-09-13T06:29:20.040Z,14.20
2022-09-13T06:31:48.074Z,14.20
2022-09-13T06:34:17.537Z,14.30
2022-09-13T06:36:45.639Z,14.30
2022-09-13T06:39:15.017Z,14.50
2022-09-13T06:41:49.906Z,14.60
2022-09-13T06:44:18.131Z,14.90
2022-09-13T06:46:47.237Z,15.40
2022-09-13T06:49:15.791Z,15.80
2022-09-13T06:51:43.833Z,16.30
2022-09-13T06:54:14.395Z,17.00
2022-09-13T06:56:42.419Z,17.50
2022-09-13T06:59:11.746Z,17.70
2022-09-13T07:01:41.870Z,18.00
2022-09-13T07:04:13.763Z,18.30
2022-09-13T07:06:42.990Z,18.40
2022-09-13T07:09:15.983Z,18.40
2022-09-13T07:11:47.130Z,18.80
2022-09-13T07:14:15.990Z,19.30
2022-09-13T07:16:46.048Z,19.70
2022-09-13T07:19:16.038Z,19.80
2022-09-13T07:21:44.829Z,20.20
2022-09-13T07:24:14.310Z,19.90
2022-09-13T07:26:42.324Z,19.90
2022-09-13T07:29:13.587Z,20.40
2022-09-13T07:31:42.966Z,20.00
2022-09-13T07:34:18.664Z,20.10
2022-09-13T07:36:47.619Z,20.50
2022-09-13T07:39:22.138Z,20.50
2022-09-13T07:41:51.285Z,20.40
2022-09-13T07:44:19.550Z,20.10
2022-09-13T07:46:47.547Z,20.30
2022-09-13T07:49:18.243Z,20.60
2022-09-13T07:51:46.772Z,20.90
2022-09-13T07:54:18.567Z,20.90
2022-09-13T07:56:47.024Z,21.00
2022-09-13T07:59:17.199Z,21.70
2022-09-13T08:01:47.296Z,22.10
2022-09-13T08:04:18.501Z,22.50
2022-09-13T08:06:46.972Z,22.70
2022-09-13T08:09:17.548Z,22.20
2022-09-13T08:11:53.774Z,22.20
2022-09-13T08:14:23.683Z,22.00
2022-09-13T08:16:52.248Z,22.70
2022-09-13T08:19:20.407Z,23.10
2022-09-13T08:21:49.227Z,23.20
2022-09-13T08:24:23.567Z,23.60
2022-09-13T08:26:52.085Z,22.90
2022-09-13T08:29:20.337Z,23.50
2022-09-13T08:31:48.519Z,22.80
2022-09-13T08:34:18.532Z,23.20
2022-09-13T08:36:46.659Z,23.30
2022-09-13T08:39:14.770Z,23.70
2022-09-13T08:42:21.043Z,23.70
2022-09-13T08:44:53.614Z,22.80
2022-09-13T08:47:41.640Z,23.00
2022-09-13T08:50:18.662Z,23.60
2022-09-13T08:53:01.513Z,24.40
2022-09-13T08:55:42.123Z,24.80
2022-09-13T08:58:31.947Z,25.20
2022-09-13T09:01:09.732Z,24.80
2022-09-13T09:03:44.738Z,25.30
2022-09-13T09:06:18.304Z,24.80
2022-09-13T09:08:49.563Z,24.10
2022-09-13T09:11:28.887Z,24.40
2022-09-13T09:14:06.416Z,24.30
2022-09-13T09:16:40.886Z,24.40
2022-09-13T09:19:18.422Z,24.20
2022-09-13T09:21:49.364Z,24.40
2022-09-13T09:24:22.124Z,24.40
2022-09-13T09:26:50.747Z,25.00
2022-09-13T09:29:25.126Z,24.60
2022-09-13T09:32:09.312Z,24.30
2022-09-13T09:34:51.162Z,24.80
2022-09-13T09:37:27.191Z,24.70
2022-09-13T09:40:03.058Z,25.40
2022-09-13T09:42:34.047Z,25.40
2022-09-13T09:45:09.008Z,25.80
2022-09-13T09:47:45.636Z,26.10
2022-09-13T09:50:18.362Z,26.20
2022-09-13T09:52:53.498Z,26.30
2022-09-13T09:55:29.146Z,24.90
2022-09-13T09:58:00.549Z,24.90
2022-09-13T10:00:34.131Z,24.80
2022-09-13T10:03:05.215Z,24.80
2022-09-13T10:05:35.022Z,25.40
2022-09-13T10:08:05.556Z,26.10
2022-09-13T10:10:39.156Z,26.00
2022-09-13T10:13:14.365Z,26.40
2022-09-13T10:15:54.458Z,26.20
2022-09-13T10:18:43.446Z,26.30
2022-09-13T10:21:23.937Z,26.50
2022-09-13T10:23:52.268Z,26.80
2022-09-13T10:26:23.821Z,27.40
2022-09-13T10:28:58.257Z,27.40
2022-09-13T10:31:33.174Z,27.90
2022-09-13T10:34:03.859Z,27.20
2022-09-13T10:36:51.515Z,27.20
2022-09-13T10:39:21.527Z,28.00
2022-09-13T10:41:53.478Z,27.90
2022-09-13T10:44:31.092Z,28.00
2022-09-13T10:47:02.975Z,27.90
2022-09-13T10:49:45.592Z,27.60
2022-09-13T10:52:34.615Z,27.80
2022-09-13T10:55:35.484Z,28.70
2022-09-13T10:58:19.493Z,28.30
2022-09-13T11:01:17.284Z,28.30
2022-09-13T11:04:15.444Z,29.20
2022-09-13T11:06:48.666Z,29.20
2022-09-13T11:09:20.908Z,28.00
2022-09-13T11:11:57.834Z,28.10
2022-09-13T11:14:50.536Z,27.50
2022-09-13T11:17:28.099Z,26.90
2022-09-13T11:20:09.266Z,27.60
2022-09-13T11:23:04.008Z,27.80
2022-09-13T11:25:49.780Z,27.40
2022-09-13T11:28:26.205Z,27.60
2022-09-13T11:31:14.367Z,27.40
2022-09-13T11:33:55.570Z,26.60
2022-09-13T11:36:56.228Z,26.40
2022-09-13T11:39:32.833Z,26.10
2022-09-13T11:42:17.734Z,26.10
2022-09-13T11:45:02.756Z,26.30
2022-09-13T11:47:41.372Z,26.70
2022-09-13T11:50:35.952Z,26.90
2022-09-13T11:53:33.847Z,27.20
2022-09-13T11:56:08.293Z,26.90
2022-09-13T11:58:40.848Z,27.00
2022-09-13T12:01:11.902Z,27.00
2022-09-13T12:03:48.869Z,27.40
2022-09-13T12:06:23.019Z,27.50
2022-09-13T12:08:55.608Z,27.60
2022-09-13T12:11:28.740Z,27.60
2022-09-13T12:13:59.723Z,28.10
2022-09-13T12:16:36.041Z,28.40
2022-09-13T12:19:09.211Z,28.70
2022-09-13T12:21:40.398Z,28.60
2022-09-13T12:24:14.973Z,28.90
2022-09-13T12:26:51.243Z,28.90
2022-09-13T12:29:33.348Z,28.80
2022-09-13T12:32:04.560Z,28.60
2022-09-13T12:34:39.476Z,28.20
2022-09-13T12:37:30.845Z,28.00
2022-09-13T12:40:15.920Z,27.70
2022-09-13T12:43:02.644Z,27.70
2022-09-13T12:45:58.754Z,27.70
2022-09-13T12:48:52.100Z,27.70
2022-09-13T12:51:33.941Z,27.80
2022-09-13T12:54:22.360Z,27.90
2022-09-13T12:57:05.052Z,27.50
2022-09-13T12:59:59.408Z,27.60
2022-09-13T13:02:35.837Z,27.80
2022-09-13T13:05:06.945Z,27.90
2022-09-13T13:07:38.159Z,28.00
2022-09-13T13:10:08.134Z,27.90
2022-09-13T13:12:39.108Z,27.90
2022-09-13T13:15:50.083Z,28.10
2022-09-13T13:18:27.712Z,28.10
2022-09-13T13:21:27.293Z,28.20
2022-09-13T13:24:33.095Z,27.80
2022-09-13T13:27:01.333Z,28.10
2022-09-13T13:29:30.842Z,27.80
2022-09-13T13:32:14.619Z,27.40
2022-09-13T13:34:45.979Z,27.60
2022-09-13T13:37:38.532Z,27.40
2022-09-13T13:40:29.190Z,27.00
2022-09-13T13:43:16.852Z,26.80
2022-09-13T13:45:59.531Z,26.60
2022-09-13T13:48:41.382Z,26.70
2022-09-13T13:51:24.298Z,26.30
2022-09-13T13:54:02.452Z,26.40
2022-09-13T13:56:47.068Z,26.70
2022-09-13T13:59:19.466Z,26.70
2022-09-13T14:01:54.217Z,27.00
2022-09-13T14:04:56.726Z,27.30
2022-09-13T14:08:01.741Z,27.50
2022-09-13T14:10:42.323Z,27.70
2022-09-13T14:13:24.112Z,28.10
2022-09-13T14:16:02.622Z,28.50
2022-09-13T14:19:03.091Z,28.20
2022-09-13T14:21:32.542Z,28.00
2022-09-13T14:24:16.925Z,27.50
2022-09-13T14:26:45.885Z,27.70
2022-09-13T14:29:18.462Z,28.30
2022-09-13T14:31:48.237Z,27.70
2022-09-13T14:34:24.559Z,28.10
2022-09-13T14:36:56.673Z,27.90
2022-09-13T14:39:25.400Z,27.70
2022-09-13T14:42:02.321Z,27.80
2022-09-13T14:44:32.561Z,27.80
2022-09-13T14:47:07.226Z,27.80
2022-09-13T14:49:45.342Z,27.90
2022-09-13T14:52:25.387Z,28.10
2022-09-13T14:54:57.499Z,28.20
2022-09-13T14:57:29.846Z,28.20
2022-09-13T15:00:01.473Z,28.60
2022-09-13T15:02:32.763Z,28.70
2022-09-13T15:05:02.351Z,28.40
2022-09-13T15:07:35.271Z,28.30
2022-09-13T15:10:10.006Z,28.70
2022-09-13T15:12:38.724Z,28.40
2022-09-13T15:15:35.343Z,28.50
2022-09-13T15:18:06.173Z,28.60
2022-09-13T15:20:49.184Z,28.60
2022-09-13T15:23:20.313Z,28.90
2022-09-13T15:25:54.688Z,28.80
2022-09-13T15:28:26.023Z,28.60
2022-09-13T15:30:54.901Z,28.60
2022-09-13T15:33:27.329Z,28.30
2022-09-13T15:36:30.096Z,28.10
2022-09-13T15:39:05.268Z,27.80
2022-09-13T15:41:52.312Z,27.40
2022-09-13T15:44:20.700Z,27.10
2022-09-13T15:46:52.289Z,27.00
2022-09-13T15:49:22.854Z,26.70
2022-09-13T15:51:55.636Z,26.70
2022-09-13T15:54:27.937Z,26.50
2022-09-13T15:56:55.922Z,26.40
2022-09-13T15:59:41.752Z,26.30
2022-09-13T16:02:19.535Z,26.20
2022-09-13T16:04:50.944Z,26.00
2022-09-13T16:07:19.471Z,26.00
2022-09-13T16:09:49.728Z,26.10
2022-09-13T16:12:18.852Z,26.00
2022-09-13T16:14:47.651Z,25.90
2022-09-13T16:17:25.246Z,25.70
2022-09-13T16:19:53.799Z,25.30
2022-09-13T16:22:22.197Z,25.10
2022-09-13T16:24:51.815Z,25.00
2022-09-13T16:27:21.011Z,24.80
2022-09-13T16:29:49.398Z,24.60
2022-09-13T16:32:17.376Z,24.50
2022-09-13T16:34:45.882Z,24.30
2022-09-13T16:37:15.222Z,23.90
2022-09-13T16:39:43.577Z,23.80
2022-09-13T16:42:13.293Z,23.70
2022-09-13T16:44:42.150Z,23.70
2022-09-13T16:47:10.276Z,23.60
2022-09-13T16:49:38.543Z,23.50
2022-09-13T16:52:06.975Z,23.40
2022-09-13T16:54:35.519Z,23.30
2022-09-13T16:57:04.445Z,23.20
2022-09-13T16:59:35.501Z,23.10
2022-09-13T17:02:03.916Z,22.90
2022-09-13T17:04:32.140Z,22.80
2022-09-13T17:07:01.961Z,22.60
2022-09-13T17:09:30.829Z,22.50
2022-09-13T17:12:01.318Z,22.40
2022-09-13T17:14:29.519Z,22.30
2022-09-13T17:16:59.229Z,22.20
2022-09-13T17:19:30.546Z,22.00
2022-09-13T17:21:59.271Z,21.90
2022-09-13T17:24:30.579Z,21.70
2022-09-13T17:26:59.683Z,21.70
2022-09-13T17:29:31.009Z,21.60
2022-09-13T17:32:04.306Z,21.50
2022-09-13T17:34:35.030Z,21.40
2022-09-13T17:37:03.924Z,21.40
2022-09-13T17:39:32.506Z,21.20
2022-09-13T17:42:04.044Z,21.10
2022-09-13T17:44:46.498Z,21.00
2022-09-13T17:47:16.544Z,20.90
2022-09-13T17:49:46.727Z,20.80
2022-09-13T17:52:14.847Z,20.70
2022-09-13T17:54:43.305Z,20.60
2022-09-13T17:57:11.883Z,20.60
2022-09-13T17:59:39.972Z,20.60
2022-09-13T18:02:08.887Z,20.50
2022-09-13T18:05:04.679Z,20.40
2022-09-13T18:07:33.975Z,20.30
2022-09-13T18:10:02.030Z,20.30
2022-09-13T18:12:30.215Z,20.20
2022-09-13T18:14:58.631Z,20.20
2022-09-13T18:17:26.878Z,20.10
2022-09-13T18:20:01.182Z,20.10
2022-09-13T18:22:31.407Z,20.00
2022-09-13T18:24:59.405Z,20.00
2022-09-13T18:27:29.946Z,20.10
2022-09-13T18:30:06.172Z,19.90
2022-09-13T18:32:34.237Z,19.90
2022-09-13T18:35:07.606Z,19.80
2022-09-13T18:37:35.683Z,19.80
2022-09-13T18:40:06.740Z,19.80
2022-09-13T18:42:34.896Z,19.80
2022-09-13T18:45:02.986Z,19.80
2022-09-13T18:47:32.002Z,19.80
2022-09-13T18:50:11.550Z,19.80
2022-09-13T18:52:40.509Z,19.90
2022-09-13T18:55:09.030Z,19.90
2022-09-13T18:57:38.071Z,19.80
2022-09-13T19:00:06.946Z,19.80
2022-09-13T19:02:56.618Z,19.80
2022-09-13T19:05:30.304Z,19.80
2022-09-13T19:07:58.401Z,19.80
2022-09-13T19:10:26.714Z,19.80
2022-09-13T19:12:55.042Z,19.80
2022-09-13T19:15:23.155Z,19.80
2022-09-13T19:17:53.177Z,19.80
2022-09-13T19:20:23.170Z,19.70
2022-09-13T19:22:59.805Z,19.60
2022-09-13T19:25:30.185Z,19.60
2022-09-13T19:27:58.280Z,19.60
2022-09-13T19:30:27.746Z,19.50
2022-09-13T19:32:55.748Z,19.50
2022-09-13T19:35:26.595Z,19.50
2022-09-13T19:37:56.379Z,19.60
2022-09-13T19:40:24.947Z,19.60
2022-09-13T19:42:53.838Z,19.60
2022-09-13T19:45:23.283Z,19.60
2022-09-13T19:50:44.031Z,19.50
2022-09-13T19:53:13.419Z,19.50
2022-09-13T19:55:46.735Z,19.50
2022-09-13T19:58:16.910Z,19.50
2022-09-13T20:00:45.492Z,19.50
2022-09-13T20:03:15.744Z,19.50
2022-09-13T20:05:51.858Z,19.60
2022-09-13T20:08:25.862Z,19.60
2022-09-13T20:10:55.241Z,19.40
2022-09-13T20:13:24.643Z,19.50
2022-09-13T20:15:53.678Z,19.50
2022-09-13T20:18:22.147Z,19.40
2022-09-13T20:20:57.748Z,19.40
2022-09-13T20:23:27.487Z,19.40
2022-09-13T20:25:56.907Z,19.40
2022-09-13T20:28:25.017Z,19.40
2022-09-13T20:30:57.471Z,19.40
2022-09-13T20:33:28.586Z,19.40
2022-09-13T20:35:58.713Z,19.40
2022-09-13T20:38:29.044Z,19.40
2022-09-13T20:40:57.422Z,19.40
2022-09-13T20:43:27.059Z,19.30
2022-09-13T20:45:58.292Z,19.30
2022-09-13T20:48:28.431Z,19.30
2022-09-13T20:51:00.459Z,19.30
2022-09-13T20:53:30.549Z,19.30
2022-09-13T20:56:04.192Z,19.20
2022-09-13T20:58:35.751Z,19.30
2022-09-13T21:01:05.557Z,19.30
2022-09-13T21:03:37.354Z,19.20
2022-09-13T21:06:06.553Z,19.30
2022-09-13T21:08:44.188Z,19.30
2022-09-13T21:11:15.210Z,19.30
2022-09-13T21:13:47.540Z,19.30
2022-09-13T21:16:18.758Z,19.30
2022-09-13T21:18:48.912Z,19.30
2022-09-13T21:21:20.083Z,19.30
2022-09-13T21:23:50.320Z,19.30
2022-09-13T21:26:23.006Z,19.30
2022-09-13T21:28:53.063Z,19.30
2022-09-13T21:31:25.003Z,19.30
2022-09-13T21:33:55.504Z,19.40
2022-09-13T21:36:24.050Z,19.40
2022-09-13T21:38:55.900Z,19.40
2022-09-13T21:41:25.280Z,19.30
2022-09-13T21:43:53.593Z,19.20
2022-09-13T21:46:23.633Z,19.20
2022-09-13T21:48:53.691Z,19.20
2022-09-13T21:51:23.601Z,19.20
2022-09-13T21:53:58.525Z,19.20
2022-09-13T21:56:30.254Z,19.30
2022-09-13T21:59:00.882Z,19.30
2022-09-13T22:01:30.886Z,19.30
2022-09-13T22:04:02.031Z,19.30
2022-09-13T22:06:33.854Z,19.40
2022-09-13T22:09:07.404Z,19.30
2022-09-13T22:11:39.848Z,19.20
2022-09-13T22:14:09.742Z,19.20
2022-09-13T22:16:39.939Z,19.30
2022-09-13T22:19:11.539Z,19.30
2022-09-13T22:21:43.889Z,19.30
2022-09-13T22:24:17.584Z,19.20
2022-09-13T22:26:48.462Z,19.20
2022-09-13T22:29:17.204Z,19.20
2022-09-13T22:31:47.495Z,19.30
2022-09-13T22:34:17.961Z,19.30
2022-09-13T22:36:46.538Z,19.30
2022-09-13T22:39:21.909Z,19.40
2022-09-13T22:41:49.900Z,19.40
2022-09-13T22:44:18.028Z,19.40
2022-09-13T22:46:47.544Z,19.40
2022-09-13T22:49:17.579Z,19.30
2022-09-13T22:51:46.819Z,19.30
2022-09-13T22:54:17.427Z,19.40
2022-09-13T22:56:47.194Z,19.30
2022-09-13T22:59:16.885Z,19.30
2022-09-13T23:01:45.442Z,19.20
2022-09-13T23:04:14.109Z,19.30
2022-09-13T23:06:44.293Z,19.30
2022-09-13T23:09:17.765Z,19.30
2022-09-13T23:11:47.823Z,19.30
2022-09-13T23:14:19.815Z,19.30
2022-09-13T23:16:50.106Z,19.30
2022-09-13T23:19:19.681Z,19.30
2022-09-13T23:21:48.637Z,19.20
2022-09-13T23:24:18.257Z,19.20
2022-09-13T23:26:48.569Z,19.20
2022-09-13T23:29:18.651Z,19.20
2022-09-13T23:31:51.937Z,19.30
2022-09-13T23:34:20.912Z,19.30
2022-09-13T23:36:56.020Z,19.30
2022-09-13T23:39:24.162Z,19.30
2022-09-13T23:41:53.917Z,19.30
2022-09-13T23:44:24.239Z,19.30
2022-09-13T23:46:53.368Z,19.30
2022-09-13T23:49:23.656Z,19.40
2022-09-13T23:51:51.895Z,19.40
2022-09-13T23:54:22.185Z,19.40
2022-09-13T23:56:50.402Z,19.40
2022-09-13T23:59:19.855Z,19.40
